Time;durP1;ratioP1;P1;durP2;ratioP2;P2;SDS_P1;SDS_P2;PMS_P1;PMS_P2;Temp;Humidity;BMP_temperature;BMP_pressure;BME280_temperature;BME280_humidity;BME280_pressure;Samples;Min_cycle;Max_cycle;Signal;HPM_P1;HPM_P2
2023/05/27 00:00:54;;;;;;;6.90;2.40;;;;;;;;;;107544;283;38775;-37
2023/05/27 00:03:34;;;;;;;6.10;2.20;;;;;;;;;;107352;286;175583;-37
2023/05/27 00:06:09;;;;;;;5.10;2.10;;;;;;;;;;107505;283;49152;-37
2023/05/27 00:08:44;;;;;;;6.40;2.70;;;;;;;;;;107531;283;42219;-37
2023/05/27 00:11:19;;;;;;;5.50;2.20;;;;;;;;;;107521;283;39923;-37
2023/05/27 00:13:53;;;;;;;5.80;2.50;;;;;;;;;;107491;286;40838;-37
2023/05/27 00:16:26;;;;;;;6.20;2.40;;;;;;;;;;107546;283;50100;-37
2023/05/27 00:19:01;;;;;;;6.30;2.20;;;;;;;;;;107540;283;42385;-37
2023/05/27 00:21:36;;;;;;;5.40;2.20;;;;;;;;;;107568;283;39895;-37
2023/05/27 00:24:12;;;;;;;7.10;2.40;;;;;;;;;;107506;286;40923;-37
2023/05/27 00:26:45;;;;;;;6.10;2.50;;;;;;;;;;107511;286;50272;-36
2023/05/27 00:29:24;;;;;;;5.70;2.10;;;;;;;;;;106872;286;892364;-37
2023/05/27 00:31:58;;;;;;;5.90;2.20;;;;;;;;;;107508;283;38813;-37
2023/05/27 00:34:34;;;;;;;6.40;2.30;;;;;;;;;;107476;283;40892;-37
2023/05/27 00:37:08;;;;;;;5.30;2.20;;;;;;;;;;107504;286;48909;-37
2023/05/27 00:39:43;;;;;;;5.70;2.10;;;;;;;;;;107530;286;43208;-37
2023/05/27 00:42:17;;;;;;;5.40;2.10;;;;;;;;;;107492;279;38751;-37
2023/05/27 00:44:50;;;;;;;5.50;2.10;;;;;;;;;;107494;283;39708;-37
2023/05/27 00:47:26;;;;;;;5.90;2.20;;;;;;;;;;107489;279;49182;-37
2023/05/27 00:50:00;;;;;;;6.00;2.30;;;;;;;;;;107488;283;42141;-37
2023/05/27 00:52:33;;;;;;;7.00;2.40;;;;;;;;;;107490;283;38996;-37
2023/05/27 00:55:09;;;;;;;5.70;2.20;;;;;;;;;;107446;286;39679;-37
2023/05/27 00:57:43;;;;;;;6.40;2.30;;;;;;;;;;107518;283;50162;-37
2023/05/27 01:00:19;;;;;;;5.70;2.30;;;;;;;;;;107499;286;43940;-37
2023/05/27 01:02:53;;;;;;;4.70;2.10;;;;;;;;;;107404;285;40061;-37
2023/05/27 01:05:29;;;;;;;5.90;2.50;;;;;;;;;;107466;283;39861;-37
2023/05/27 01:08:25;;;;;;;5.40;2.10;;;;;;;;;;107484;286;49250;-37
2023/05/27 01:10:59;;;;;;;5.30;2.30;;;;;;;;;;107493;283;42261;-37
2023/05/27 01:13:40;;;;;;;5.70;2.10;;;;;;;;;;107531;283;39126;-37
2023/05/27 01:16:18;;;;;;;6.10;2.10;;;;;;;;;;107015;286;544150;-37
2023/05/27 01:18:55;;;;;;;5.30;2.00;;;;;;;;;;107454;285;44153;-37
2023/05/27 01:21:32;;;;;;;5.40;2.10;;;;;;;;;;107492;283;43326;-37
2023/05/27 01:24:10;;;;;;;5.50;2.20;;;;;;;;;;107515;286;38837;-37
2023/05/27 01:26:44;;;;;;;6.10;2.40;;;;;;;;;;107439;283;40830;-37
2023/05/27 01:29:17;;;;;;;5.70;2.20;;;;;;;;;;107495;283;43146;-37
2023/05/27 01:31:58;;;;;;;5.20;2.10;;;;;;;;;;107493;283;42196;-37
2023/05/27 01:34:40;;;;;;;5.20;2.00;;;;;;;;;;107482;283;39146;-37
2023/05/27 01:37:21;;;;;;;5.30;2.00;;;;;;;;;;107447;283;40829;-37
2023/05/27 01:39:56;;;;;;;5.30;2.10;;;;;;;;;;107510;283;44038;-37
2023/05/27 01:42:31;;;;;;;5.60;2.00;;;;;;;;;;107485;286;42154;-37
2023/05/27 01:45:08;;;;;;;5.60;2.30;;;;;;;;;;107492;286;40068;-37
2023/05/27 01:47:42;;;;;;;5.60;2.20;;;;;;;;;;107470;286;39986;-37
2023/05/27 01:50:17;;;;;;;5.50;1.90;;;;;;;;;;107489;286;42922;-37
2023/05/27 01:52:50;;;;;;;5.20;2.10;;;;;;;;;;107491;283;42087;-37
2023/05/27 01:55:24;;;;;;;5.00;2.00;;;;;;;;;;107507;286;38842;-37
2023/05/27 01:58:00;;;;;;;5.20;2.00;;;;;;;;;;107452;286;39526;-37
2023/05/27 02:00:37;;;;;;;4.90;1.90;;;;;;;;;;107518;283;42911;-37
2023/05/27 02:03:10;;;;;;;5.40;2.10;;;;;;;;;;107497;283;42396;-37
2023/05/27 02:05:45;;;;;;;5.40;1.80;;;;;;;;;;107526;286;39119;-37
2023/05/27 02:08:18;;;;;;;4.80;2.00;;;;;;;;;;107401;283;175567;-37
2023/05/27 02:10:51;;;;;;;5.20;2.20;;;;;;;;;;107491;283;42909;-37
2023/05/27 02:13:24;;;;;;;5.30;2.30;;;;;;;;;;107518;279;43170;-37
2023/05/27 02:15:58;;;;;;;5.20;2.10;;;;;;;;;;107501;283;39851;-37
2023/05/27 02:18:32;;;;;;;5.30;2.00;;;;;;;;;;107488;283;40807;-36
2023/05/27 02:21:06;;;;;;;5.50;2.20;;;;;;;;;;107494;286;43008;-37
2023/05/27 02:23:39;;;;;;;5.10;2.00;;;;;;;;;;107481;279;43393;-37
2023/05/27 02:26:15;;;;;;;5.00;2.00;;;;;;;;;;107474;286;38830;-37
2023/05/27 02:28:48;;;;;;;4.60;1.90;;;;;;;;;;107493;283;39798;-37
2023/05/27 02:31:22;;;;;;;5.00;1.90;;;;;;;;;;107495;283;43030;-36
2023/05/27 02:33:56;;;;;;;6.10;2.10;;;;;;;;;;107472;283;42273;-37
2023/05/27 02:36:33;;;;;;;5.40;2.10;;;;;;;;;;107499;286;38966;-37
2023/05/27 02:39:10;;;;;;;5.60;2.40;;;;;;;;;;107481;286;40797;-37
2023/05/27 02:41:43;;;;;;;5.30;2.20;;;;;;;;;;107509;283;42910;-36
2023/05/27 02:44:16;;;;;;;5.80;2.00;;;;;;;;;;107510;283;41943;-37
2023/05/27 02:46:50;;;;;;;5.30;2.00;;;;;;;;;;107517;286;38986;-37
2023/05/27 02:49:23;;;;;;;5.00;2.10;;;;;;;;;;107525;286;39816;-37
2023/05/27 02:51:57;;;;;;;4.70;2.10;;;;;;;;;;107490;286;42927;-36
2023/05/27 02:54:36;;;;;;;5.00;1.80;;;;;;;;;;107509;286;42127;-37
2023/05/27 02:57:10;;;;;;;5.40;2.20;;;;;;;;;;107498;282;38833;-37
2023/05/27 02:59:43;;;;;;;5.00;2.00;;;;;;;;;;107482;286;39734;-37
2023/05/27 03:02:16;;;;;;;6.00;1.80;;;;;;;;;;107525;283;42967;-37
2023/05/27 03:04:50;;;;;;;5.10;1.90;;;;;;;;;;107503;286;43375;-37
2023/05/27 03:07:24;;;;;;;5.80;2.10;;;;;;;;;;107404;286;39852;-36
2023/05/27 03:09:58;;;;;;;4.80;1.80;;;;;;;;;;107351;286;175581;-36
2023/05/27 03:12:31;;;;;;;4.90;1.80;;;;;;;;;;107505;283;44125;-37
2023/05/27 03:15:06;;;;;;;5.50;2.10;;;;;;;;;;106887;283;894307;-37
2023/05/27 03:17:41;;;;;;;5.00;1.90;;;;;;;;;;107519;283;38977;-37
2023/05/27 03:20:16;;;;;;;4.60;2.00;;;;;;;;;;107488;286;39733;-37
2023/05/27 03:22:50;;;;;;;5.10;1.90;;;;;;;;;;107524;286;43091;-37
2023/05/27 03:25:26;;;;;;;5.50;2.10;;;;;;;;;;107486;286;42315;-37
2023/05/27 03:28:00;;;;;;;5.10;1.90;;;;;;;;;;107498;279;38766;-37
2023/05/27 03:30:33;;;;;;;5.70;2.30;;;;;;;;;;107478;279;39735;-37
2023/05/27 03:33:07;;;;;;;5.50;2.00;;;;;;;;;;107391;285;43985;-37
2023/05/27 03:35:40;;;;;;;5.70;2.00;;;;;;;;;;107537;283;41927;-37
2023/05/27 03:38:13;;;;;;;5.90;2.10;;;;;;;;;;107504;279;38748;-37
2023/05/27 03:40:47;;;;;;;5.90;2.10;;;;;;;;;;107459;282;39858;-37
2023/05/27 03:43:21;;;;;;;5.40;2.00;;;;;;;;;;107531;283;42998;-37
2023/05/27 03:45:55;;;;;;;5.50;2.10;;;;;;;;;;107497;283;43443;-37
2023/05/27 03:48:29;;;;;;;5.40;2.00;;;;;;;;;;107536;286;38772;-37
2023/05/27 03:51:02;;;;;;;4.30;1.80;;;;;;;;;;107457;286;39724;-38
2023/05/27 03:53:37;;;;;;;5.10;2.00;;;;;;;;;;107478;283;42927;-37
2023/05/27 03:56:13;;;;;;;5.70;2.00;;;;;;;;;;107512;283;42135;-37
2023/05/27 03:58:46;;;;;;;4.50;2.10;;;;;;;;;;107487;283;40977;-37
2023/05/27 04:01:20;;;;;;;5.30;2.00;;;;;;;;;;107473;286;45613;-37
2023/05/27 04:03:54;;;;;;;4.90;2.00;;;;;;;;;;107500;286;44193;-37
2023/05/27 04:06:31;;;;;;;4.90;1.70;;;;;;;;;;107495;286;43310;-37
2023/05/27 04:09:04;;;;;;;4.60;1.90;;;;;;;;;;107521;283;38799;-37
2023/05/27 04:11:39;;;;;;;5.20;1.90;;;;;;;;;;107356;283;175593;-37
2023/05/27 04:14:12;;;;;;;4.80;2.00;;;;;;;;;;107489;286;44508;-37
2023/05/27 04:16:47;;;;;;;4.90;1.80;;;;;;;;;;107495;286;42151;-37
2023/05/27 04:19:22;;;;;;;5.00;1.80;;;;;;;;;;107499;283;38817;-37
2023/05/27 04:21:55;;;;;;;5.00;1.90;;;;;;;;;;107370;286;175206;-37
2023/05/27 04:24:28;;;;;;;5.10;2.10;;;;;;;;;;107552;286;42936;-37
2023/05/27 04:27:02;;;;;;;4.70;1.80;;;;;;;;;;107565;283;43371;-36
2023/05/27 04:29:35;;;;;;;4.80;1.90;;;;;;;;;;107520;287;39113;-37
2023/05/27 04:32:12;;;;;;;5.60;2.20;;;;;;;;;;107441;283;46495;-37
2023/05/27 04:34:45;;;;;;;5.30;1.80;;;;;;;;;;107494;283;43096;-37
2023/05/27 04:37:20;;;;;;;4.70;2.00;;;;;;;;;;107519;286;43163;-37
2023/05/27 04:39:56;;;;;;;5.00;1.80;;;;;;;;;;107551;286;39923;-37
2023/05/27 04:42:32;;;;;;;6.00;2.00;;;;;;;;;;107484;282;45412;-37
2023/05/27 04:45:08;;;;;;;4.90;1.80;;;;;;;;;;107403;286;175580;-37
2023/05/27 04:47:46;;;;;;;6.20;2.40;;;;;;;;;;107575;287;42128;-37
2023/05/27 04:50:23;;;;;;;4.90;2.20;;;;;;;;;;107530;283;38815;-37
2023/05/27 04:52:56;;;;;;;6.50;2.10;;;;;;;;;;107540;283;46934;-37
2023/05/27 04:55:32;;;;;;;6.30;2.30;;;;;;;;;;107502;283;43027;-36
2023/05/27 04:58:05;;;;;;;4.90;2.00;;;;;;;;;;107504;279;42146;-36
2023/05/27 05:00:49;;;;;;;5.40;2.30;;;;;;;;;;107450;286;38825;-36
2023/05/27 05:03:36;;;;;;;5.30;1.90;;;;;;;;;;107446;286;46973;-36
2023/05/27 05:06:10;;;;;;;5.20;1.80;;;;;;;;;;107470;283;42996;-36
2023/05/27 05:08:43;;;;;;;5.80;1.90;;;;;;;;;;107483;283;42181;-36
2023/05/27 05:11:17;;;;;;;5.80;2.20;;;;;;;;;;107407;283;38863;-36
2023/05/27 05:13:50;;;;;;;6.00;2.30;;;;;;;;;;107501;286;39820;-36
2023/05/27 05:16:23;;;;;;;5.20;2.10;;;;;;;;;;107476;283;42970;-36
2023/05/27 05:18:57;;;;;;;5.70;2.00;;;;;;;;;;107338;283;175589;-36
2023/05/27 05:21:30;;;;;;;5.10;2.40;;;;;;;;;;107455;283;38883;-36
2023/05/27 05:24:04;;;;;;;5.50;2.00;;;;;;;;;;107482;283;39711;-36
2023/05/27 05:26:37;;;;;;;4.40;1.70;;;;;;;;;;107480;283;43015;-36
2023/05/27 05:29:11;;;;;;;5.90;1.90;;;;;;;;;;107473;283;42243;-36
2023/05/27 05:31:45;;;;;;;5.70;2.00;;;;;;;;;;107442;283;38772;-36
2023/05/27 05:34:18;;;;;;;5.80;2.00;;;;;;;;;;107486;283;39733;-36
2023/05/27 05:36:53;;;;;;;5.20;2.00;;;;;;;;;;107479;286;42947;-36
2023/05/27 05:39:27;;;;;;;5.30;2.10;;;;;;;;;;107474;283;42193;-36
2023/05/27 05:42:00;;;;;;;5.20;2.20;;;;;;;;;;107422;279;40096;-36
2023/05/27 05:44:34;;;;;;;5.90;2.00;;;;;;;;;;107485;283;39568;-36
2023/05/27 05:47:08;;;;;;;4.90;1.80;;;;;;;;;;107465;283;42924;-36
2023/05/27 05:49:41;;;;;;;5.30;2.00;;;;;;;;;;107451;283;42180;-36
2023/05/27 05:52:15;;;;;;;4.40;1.70;;;;;;;;;;107317;286;175638;-36
2023/05/27 05:54:48;;;;;;;4.70;2.00;;;;;;;;;;107379;286;40898;-36
2023/05/27 05:57:22;;;;;;;5.00;1.60;;;;;;;;;;107497;279;43328;-36
2023/05/27 05:59:55;;;;;;;5.30;1.80;;;;;;;;;;107520;283;43402;-36
2023/05/27 06:02:28;;;;;;;4.50;1.60;;;;;;;;;;107437;283;38826;-36
2023/05/27 06:05:02;;;;;;;5.60;1.70;;;;;;;;;;107472;279;39742;-36
2023/05/27 06:07:35;;;;;;;5.60;2.10;;;;;;;;;;107473;283;44220;-36
2023/05/27 06:10:12;;;;;;;4.40;1.60;;;;;;;;;;107461;283;42182;-36
2023/05/27 06:12:45;;;;;;;4.90;1.70;;;;;;;;;;107450;279;38819;-36
2023/05/27 06:15:18;;;;;;;4.10;1.70;;;;;;;;;;107507;283;39732;-36
2023/05/27 06:17:51;;;;;;;4.80;1.70;;;;;;;;;;107463;279;43017;-36
2023/05/27 06:20:25;;;;;;;4.90;1.80;;;;;;;;;;107464;279;42265;-36
2023/05/27 06:22:58;;;;;;;5.30;1.80;;;;;;;;;;107463;283;38979;-36
2023/05/27 06:25:31;;;;;;;5.40;1.90;;;;;;;;;;107480;283;39744;-36
2023/05/27 06:28:04;;;;;;;5.00;1.70;;;;;;;;;;107454;286;43969;-36
2023/05/27 06:30:38;;;;;;;3.80;1.60;;;;;;;;;;107430;287;43985;-36
2023/05/27 06:33:11;;;;;;;4.20;1.70;;;;;;;;;;107466;283;39942;-36
2023/05/27 06:35:45;;;;;;;4.60;1.70;;;;;;;;;;107345;283;175588;-36
2023/05/27 06:38:18;;;;;;;4.30;1.70;;;;;;;;;;106822;283;895208;-36
2023/05/27 06:40:51;;;;;;;4.40;1.60;;;;;;;;;;107487;286;42692;-35
2023/05/27 06:43:24;;;;;;;4.70;1.70;;;;;;;;;;107308;286;175589;-35
2023/05/27 06:45:58;;;;;;;4.50;1.80;;;;;;;;;;107488;279;39787;-36
2023/05/27 06:48:37;;;;;;;4.50;1.60;;;;;;;;;;107482;287;43068;-35
2023/05/27 06:51:12;;;;;;;3.90;1.50;;;;;;;;;;107489;286;42187;-35
2023/05/27 06:53:45;;;;;;;4.30;1.60;;;;;;;;;;107444;283;39161;-35
2023/05/27 06:56:18;;;;;;;4.10;1.80;;;;;;;;;;107479;283;39692;-35
2023/05/27 06:58:51;;;;;;;4.40;1.60;;;;;;;;;;107465;283;42953;-35
2023/05/27 07:01:25;;;;;;;5.50;1.70;;;;;;;;;;107496;286;42119;-35
2023/05/27 07:03:58;;;;;;;5.10;1.60;;;;;;;;;;107455;279;38818;-35
2023/05/27 07:06:31;;;;;;;5.30;1.50;;;;;;;;;;107476;283;39729;-37
2023/05/27 07:09:05;;;;;;;4.90;1.60;;;;;;;;;;107441;286;44073;-37
2023/05/27 07:11:38;;;;;;;4.60;1.70;;;;;;;;;;107470;286;42283;-36
2023/05/27 07:14:11;;;;;;;4.90;1.50;;;;;;;;;;107469;283;38848;-36
2023/05/27 07:16:44;;;;;;;5.00;1.60;;;;;;;;;;107479;283;40909;-35
2023/05/27 07:19:18;;;;;;;4.00;1.60;;;;;;;;;;107460;286;43230;-35
2023/05/27 07:21:51;;;;;;;3.90;1.40;;;;;;;;;;107473;286;42199;-35
2023/05/27 07:24:24;;;;;;;4.30;1.80;;;;;;;;;;107446;286;39908;-35
2023/05/27 07:26:57;;;;;;;4.00;1.60;;;;;;;;;;107459;286;39741;-35
2023/05/27 07:29:30;;;;;;;4.30;1.50;;;;;;;;;;107466;286;44016;-34
2023/05/27 07:32:05;;;;;;;4.30;1.40;;;;;;;;;;107473;286;42303;-35
2023/05/27 07:34:38;;;;;;;3.90;1.40;;;;;;;;;;107505;283;40048;-34
2023/05/27 07:37:13;;;;;;;4.10;1.40;;;;;;;;;;107522;286;39783;-35
2023/05/27 07:39:46;;;;;;;3.90;1.40;;;;;;;;;;107479;283;43048;-36
2023/05/27 07:42:20;;;;;;;4.10;1.50;;;;;;;;;;107515;283;42139;-34
2023/05/27 07:44:53;;;;;;;3.80;1.30;;;;;;;;;;107438;283;39931;-36
2023/05/27 07:47:27;;;;;;;3.50;1.30;;;;;;;;;;107488;286;39757;-37
2023/05/27 07:50:03;;;;;;;3.70;1.40;;;;;;;;;;107533;286;43033;-36
2023/05/27 07:52:36;;;;;;;4.90;1.60;;;;;;;;;;107507;286;42157;-35
2023/05/27 07:55:11;;;;;;;4.10;1.30;;;;;;;;;;107463;286;40264;-36
2023/05/27 07:57:44;;;;;;;4.30;1.30;;;;;;;;;;107533;286;39845;-38
2023/05/27 08:00:19;;;;;;;4.00;1.50;;;;;;;;;;107492;283;42928;-36
2023/05/27 08:02:52;;;;;;;4.20;1.30;;;;;;;;;;107493;283;43339;-36
2023/05/27 08:05:26;;;;;;;3.70;1.20;;;;;;;;;;107431;284;38828;-37
2023/05/27 08:07:59;;;;;;;4.00;1.50;;;;;;;;;;107481;283;39869;-36
2023/05/27 08:10:33;;;;;;;3.70;1.60;;;;;;;;;;107498;283;42934;-36
2023/05/27 08:13:06;;;;;;;4.70;1.30;;;;;;;;;;107500;286;41868;-36
2023/05/27 08:15:39;;;;;;;4.30;1.40;;;;;;;;;;107506;286;38980;-36
2023/05/27 08:18:12;;;;;;;4.10;1.40;;;;;;;;;;107480;283;41010;-36
2023/05/27 08:20:47;;;;;;;4.10;1.40;;;;;;;;;;107523;283;43089;-36
2023/05/27 08:23:25;;;;;;;3.80;1.20;;;;;;;;;;107500;279;42227;-36
2023/05/27 08:25:58;;;;;;;4.70;1.20;;;;;;;;;;107524;283;39188;-36
2023/05/27 08:28:34;;;;;;;3.80;1.20;;;;;;;;;;107513;283;39691;-36
2023/05/27 08:31:10;;;;;;;4.40;1.40;;;;;;;;;;107528;283;42778;-36
2023/05/27 08:33:45;;;;;;;5.40;1.60;;;;;;;;;;107519;286;42146;-36
2023/05/27 08:36:20;;;;;;;3.90;1.20;;;;;;;;;;107478;286;39881;-36
2023/05/27 08:38:53;;;;;;;5.10;1.50;;;;;;;;;;107520;283;39683;-36
2023/05/27 08:41:28;;;;;;;4.40;1.40;;;;;;;;;;107477;286;43016;-36
2023/05/27 08:44:01;;;;;;;3.70;1.30;;;;;;;;;;107525;283;41913;-36
2023/05/27 08:46:53;;;;;;;3.50;1.30;;;;;;;;;;107490;286;39920;-36
2023/05/27 08:49:27;;;;;;;3.70;1.60;;;;;;;;;;106878;279;892661;-36
2023/05/27 08:52:03;;;;;;;5.10;1.70;;;;;;;;;;107552;286;42917;-36
2023/05/27 08:54:38;;;;;;;3.90;1.60;;;;;;;;;;107575;283;42137;-35
2023/05/27 08:57:15;;;;;;;5.00;1.60;;;;;;;;;;107349;286;175596;-36
2023/05/27 08:59:48;;;;;;;4.10;1.70;;;;;;;;;;107372;285;39741;-36
2023/05/27 09:02:24;;;;;;;4.10;1.60;;;;;;;;;;107511;287;43995;-36
2023/05/27 09:04:59;;;;;;;4.20;1.50;;;;;;;;;;107500;283;42178;-36
2023/05/27 09:07:32;;;;;;;3.90;1.50;;;;;;;;;;107480;285;39987;-36
2023/05/27 09:10:07;;;;;;;3.90;1.40;;;;;;;;;;107508;283;40877;-36
2023/05/27 09:12:47;;;;;;;4.90;1.70;;;;;;;;;;107551;283;42931;-36
2023/05/27 09:15:20;;;;;;;4.50;1.70;;;;;;;;;;107378;286;175554;-36
2023/05/27 09:17:57;;;;;;;4.20;1.60;;;;;;;;;;106968;285;554568;-36
2023/05/27 09:20:32;;;;;;;4.70;1.70;;;;;;;;;;107559;286;40973;-37
2023/05/27 09:23:09;;;;;;;4.40;1.60;;;;;;;;;;107501;286;42940;-36
2023/05/27 09:25:49;;;;;;;4.40;1.60;;;;;;;;;;107532;283;43309;-36
2023/05/27 09:28:27;;;;;;;4.70;1.70;;;;;;;;;;107484;283;40133;-36
2023/05/27 09:31:09;;;;;;;4.40;1.50;;;;;;;;;;107534;286;39732;-36
2023/05/27 09:33:43;;;;;;;4.50;1.70;;;;;;;;;;107492;279;42890;-36
2023/05/27 09:36:26;;;;;;;4.80;1.50;;;;;;;;;;107459;286;42202;-36
2023/05/27 09:39:03;;;;;;;4.20;1.50;;;;;;;;;;107503;283;46207;-35
2023/05/27 09:41:38;;;;;;;3.80;1.30;;;;;;;;;;107372;287;39714;-36
2023/05/27 09:44:14;;;;;;;4.40;1.70;;;;;;;;;;107522;287;44031;-36
2023/05/27 09:46:48;;;;;;;3.40;1.30;;;;;;;;;;107447;286;42157;-36
2023/05/27 09:49:27;;;;;;;3.90;1.30;;;;;;;;;;107548;283;38759;-36
2023/05/27 09:52:02;;;;;;;4.00;1.50;;;;;;;;;;107536;286;41021;-36
2023/05/27 09:54:36;;;;;;;3.60;1.00;;;;;;;;;;107540;283;44046;-37
2023/05/27 09:57:12;;;;;;;4.00;1.30;;;;;;;;;;107482;286;42392;-36
2023/05/27 09:59:47;;;;;;;4.60;1.40;;;;;;;;;;107508;286;39946;-36
2023/05/27 10:02:26;;;;;;;4.10;1.00;;;;;;;;;;107510;283;39500;-36
2023/05/27 10:05:01;;;;;;;3.50;1.00;;;;;;;;;;107532;286;44097;-36
2023/05/27 10:07:42;;;;;;;4.30;1.20;;;;;;;;;;107477;279;42129;-36
2023/05/27 10:10:37;;;;;;;3.20;1.20;;;;;;;;;;107385;283;38776;-38
2023/05/27 10:13:12;;;;;;;4.10;1.30;;;;;;;;;;107444;286;39773;-38
2023/05/27 10:15:52;;;;;;;3.80;1.10;;;;;;;;;;107516;286;42927;-39
2023/05/27 10:18:30;;;;;;;3.10;1.00;;;;;;;;;;107486;286;42115;-40
2023/05/27 10:21:09;;;;;;;4.00;1.20;;;;;;;;;;107469;283;38840;-38
2023/05/27 10:23:56;;;;;;;3.50;1.00;;;;;;;;;;107552;283;39854;-37
2023/05/27 10:26:40;;;;;;;3.80;1.10;;;;;;;;;;107538;283;44030;-38
2023/05/27 10:29:15;;;;;;;4.20;1.30;;;;;;;;;;107536;283;42189;-38
2023/05/27 10:31:52;;;;;;;4.00;1.10;;;;;;;;;;107557;282;39053;-38
2023/05/27 10:34:38;;;;;;;2.90;1.10;;;;;;;;;;107504;283;40883;-37
2023/05/27 10:37:12;;;;;;;2.40;0.90;;;;;;;;;;107561;283;44243;-37
2023/05/27 10:39:55;;;;;;;3.80;1.10;;;;;;;;;;107506;282;42152;-36
2023/05/27 10:42:29;;;;;;;3.50;1.00;;;;;;;;;;107535;283;39973;-36
2023/05/27 10:45:13;;;;;;;4.40;1.20;;;;;;;;;;107561;286;39715;-37
2023/05/27 10:47:51;;;;;;;3.50;1.00;;;;;;;;;;107564;283;43042;-35
2023/05/27 10:50:36;;;;;;;4.30;1.30;;;;;;;;;;107494;283;50062;-37
2023/05/27 10:53:12;;;;;;;3.70;1.20;;;;;;;;;;107487;283;38840;-38
2023/05/27 10:55:47;;;;;;;2.90;1.00;;;;;;;;;;107565;285;39736;-38
2023/05/27 10:58:22;;;;;;;3.60;1.10;;;;;;;;;;107506;283;44061;-38
2023/05/27 11:00:57;;;;;;;3.50;1.20;;;;;;;;;;107509;282;48425;-37
2023/05/27 11:03:31;;;;;;;3.10;0.90;;;;;;;;;;107591;285;38744;-37
2023/05/27 11:06:07;;;;;;;3.60;1.10;;;;;;;;;;107553;279;39654;-38
2023/05/27 11:08:42;;;;;;;3.00;0.90;;;;;;;;;;107475;283;42912;-39
2023/05/27 11:11:16;;;;;;;3.30;1.00;;;;;;;;;;107522;283;47986;-38
2023/05/27 11:13:50;;;;;;;3.80;1.10;;;;;;;;;;107573;283;38815;-38
2023/05/27 11:16:24;;;;;;;3.50;1.10;;;;;;;;;;107483;286;39835;-38
2023/05/27 11:18:58;;;;;;;3.00;1.00;;;;;;;;;;107460;283;42837;-37
2023/05/27 11:21:33;;;;;;;3.10;1.10;;;;;;;;;;107582;282;49469;-38
2023/05/27 11:24:17;;;;;;;2.90;1.10;;;;;;;;;;107564;283;38805;-37
2023/05/27 11:26:51;;;;;;;4.30;1.20;;;;;;;;;;107574;285;39722;-38
2023/05/27 11:29:27;;;;;;;3.20;1.00;;;;;;;;;;107468;283;42936;-36
2023/05/27 11:32:02;;;;;;;3.70;1.10;;;;;;;;;;107582;283;42337;-36
2023/05/27 11:34:39;;;;;;;3.20;0.90;;;;;;;;;;107552;283;39026;-38
2023/05/27 11:37:13;;;;;;;2.80;1.00;;;;;;;;;;107519;286;39753;-37
2023/05/27 11:39:54;;;;;;;4.50;1.10;;;;;;;;;;107505;283;42950;-40
2023/05/27 11:42:30;;;;;;;3.20;0.90;;;;;;;;;;107573;285;41878;-41
2023/05/27 11:45:15;;;;;;;3.40;1.20;;;;;;;;;;107477;283;38988;-41
2023/05/27 11:47:50;;;;;;;3.20;1.20;;;;;;;;;;107518;285;39537;-38
2023/05/27 11:50:27;;;;;;;2.70;0.90;;;;;;;;;;107424;283;44021;-39
2023/05/27 11:53:06;;;;;;;3.80;1.00;;;;;;;;;;107534;286;41842;-40
2023/05/27 11:55:40;;;;;;;3.60;1.20;;;;;;;;;;107547;286;38806;-41
2023/05/27 11:58:14;;;;;;;3.80;1.00;;;;;;;;;;107531;283;39852;-42
2023/05/27 12:00:47;;;;;;;3.40;1.10;;;;;;;;;;107423;283;44239;-40
2023/05/27 12:03:20;;;;;;;4.00;1.00;;;;;;;;;;107552;283;42652;-42
2023/05/27 12:05:54;;;;;;;3.10;1.00;;;;;;;;;;107555;283;38769;-40
2023/05/27 12:08:28;;;;;;;2.80;1.00;;;;;;;;;;107477;286;39731;-40
2023/05/27 12:11:03;;;;;;;2.90;1.00;;;;;;;;;;107567;278;44109;-40
2023/05/27 12:13:36;;;;;;;2.90;0.90;;;;;;;;;;107339;287;42174;-42
2023/05/27 12:16:12;;;;;;;3.10;1.00;;;;;;;;;;107508;283;38752;-40
2023/05/27 12:18:45;;;;;;;2.80;1.10;;;;;;;;;;107478;283;39814;-42
2023/05/27 12:21:20;;;;;;;3.70;1.10;;;;;;;;;;107517;286;43008;-40
2023/05/27 12:23:55;;;;;;;4.00;1.10;;;;;;;;;;107550;283;42146;-41
2023/05/27 12:26:28;;;;;;;3.00;1.10;;;;;;;;;;107488;286;38815;-40
2023/05/27 12:29:02;;;;;;;4.20;1.10;;;;;;;;;;107604;283;40867;-40
2023/05/27 12:31:35;;;;;;;3.20;1.10;;;;;;;;;;107480;286;42840;-40
2023/05/27 12:34:08;;;;;;;3.60;1.20;;;;;;;;;;107634;286;42155;-41
2023/05/27 12:36:41;;;;;;;5.30;1.60;;;;;;;;;;107350;286;39860;-42
2023/05/27 12:39:15;;;;;;;3.40;1.10;;;;;;;;;;107587;279;39735;-42
2023/05/27 12:41:48;;;;;;;4.80;1.60;;;;;;;;;;107412;283;43025;-40
2023/05/27 12:44:22;;;;;;;4.20;1.60;;;;;;;;;;107533;283;42182;-40
2023/05/27 12:46:55;;;;;;;3.90;1.40;;;;;;;;;;107395;283;38797;-40
2023/05/27 12:49:28;;;;;;;4.90;1.80;;;;;;;;;;107561;283;39731;-41
2023/05/27 12:52:02;;;;;;;3.70;1.30;;;;;;;;;;107487;283;44090;-41
2023/05/27 12:54:36;;;;;;;3.30;1.30;;;;;;;;;;107472;283;42234;-40
2023/05/27 12:57:09;;;;;;;4.30;1.60;;;;;;;;;;107581;283;38787;-40
2023/05/27 12:59:43;;;;;;;4.90;1.60;;;;;;;;;;107514;283;41108;-37
2023/05/27 13:02:18;;;;;;;3.70;1.40;;;;;;;;;;107390;286;175527;-37
2023/05/27 13:04:52;;;;;;;4.40;1.60;;;;;;;;;;107596;290;42068;-40
2023/05/27 13:07:26;;;;;;;4.30;1.50;;;;;;;;;;107534;286;38851;-40
2023/05/27 13:10:03;;;;;;;4.10;1.40;;;;;;;;;;107544;286;39803;-37
2023/05/27 13:12:37;;;;;;;4.80;1.70;;;;;;;;;;107513;286;43085;-37
2023/05/27 13:15:13;;;;;;;4.10;1.40;;;;;;;;;;107525;283;42310;-39
2023/05/27 13:17:47;;;;;;;4.50;1.40;;;;;;;;;;107545;283;38756;-39
2023/05/27 13:20:24;;;;;;;5.20;1.70;;;;;;;;;;107565;283;39746;-37
2023/05/27 13:23:00;;;;;;;3.50;1.50;;;;;;;;;;107522;286;42941;-37
2023/05/27 13:25:35;;;;;;;4.40;1.40;;;;;;;;;;107382;283;175526;-38
2023/05/27 13:28:09;;;;;;;4.20;1.40;;;;;;;;;;107492;283;39602;-37
2023/05/27 13:30:42;;;;;;;4.20;1.40;;;;;;;;;;107578;283;39534;-37
2023/05/27 13:33:17;;;;;;;4.00;1.40;;;;;;;;;;107459;286;42931;-37
2023/05/27 13:35:50;;;;;;;3.30;1.20;;;;;;;;;;107518;283;42183;-37
2023/05/27 13:38:24;;;;;;;3.30;1.20;;;;;;;;;;107578;286;38806;-42
2023/05/27 13:40:59;;;;;;;3.70;1.30;;;;;;;;;;107472;286;175185;-41
2023/05/27 13:43:33;;;;;;;3.50;1.40;;;;;;;;;;107498;285;42685;-42
2023/05/27 13:46:06;;;;;;;4.20;1.40;;;;;;;;;;107528;283;43262;-42
2023/05/27 13:48:40;;;;;;;3.80;1.70;;;;;;;;;;107560;286;38759;-43
2023/05/27 13:51:13;;;;;;;4.90;2.00;;;;;;;;;;107502;283;40219;-40
2023/05/27 13:53:48;;;;;;;4.30;2.00;;;;;;;;;;107409;278;175544;-43
2023/05/27 13:56:22;;;;;;;4.40;2.20;;;;;;;;;;107560;283;43197;-42
2023/05/27 13:58:56;;;;;;;4.90;2.30;;;;;;;;;;107462;279;38797;-40
2023/05/27 14:01:29;;;;;;;4.40;2.30;;;;;;;;;;107521;283;39686;-41
2023/05/27 14:04:03;;;;;;;6.50;3.10;;;;;;;;;;107495;286;44408;-40
2023/05/27 14:06:37;;;;;;;4.70;3.00;;;;;;;;;;106789;286;894428;-40
2023/05/27 14:09:10;;;;;;;5.40;3.00;;;;;;;;;;107553;283;39039;-41
2023/05/27 14:11:44;;;;;;;5.20;2.60;;;;;;;;;;107429;279;175495;-40
2023/05/27 14:14:17;;;;;;;5.10;2.40;;;;;;;;;;107443;283;42966;-42
2023/05/27 14:16:51;;;;;;;5.10;2.40;;;;;;;;;;107535;283;42124;-41
2023/05/27 14:19:25;;;;;;;4.40;1.90;;;;;;;;;;107526;279;38830;-41
2023/05/27 14:21:58;;;;;;;5.40;2.10;;;;;;;;;;107526;283;41005;-42
2023/05/27 14:24:32;;;;;;;5.00;2.00;;;;;;;;;;107511;282;42981;-41
2023/05/27 14:27:06;;;;;;;4.80;1.90;;;;;;;;;;107496;283;42207;-41
2023/05/27 14:29:41;;;;;;;5.00;1.80;;;;;;;;;;107548;283;40024;-40
2023/05/27 14:32:19;;;;;;;3.80;1.50;;;;;;;;;;107536;283;39959;-41
2023/05/27 14:34:55;;;;;;;4.90;1.80;;;;;;;;;;107353;284;42931;-41
2023/05/27 14:37:29;;;;;;;4.80;1.70;;;;;;;;;;107565;283;42261;-40
2023/05/27 14:40:03;;;;;;;3.90;1.90;;;;;;;;;;107551;283;38775;-41
2023/05/27 14:42:36;;;;;;;4.70;1.90;;;;;;;;;;107468;286;39669;-41
2023/05/27 14:45:11;;;;;;;4.70;1.90;;;;;;;;;;107527;283;44080;-42
2023/05/27 14:47:45;;;;;;;6.20;3.10;;;;;;;;;;107566;286;44185;-41
2023/05/27 14:50:18;;;;;;;5.60;2.80;;;;;;;;;;107496;286;38773;-43
2023/05/27 14:52:54;;;;;;;6.00;3.20;;;;;;;;;;107560;283;39611;-42
2023/05/27 14:55:30;;;;;;;6.10;3.60;;;;;;;;;;107469;282;43049;-41
2023/05/27 14:58:06;;;;;;;7.30;3.40;;;;;;;;;;107492;285;43130;-41
2023/05/27 15:00:41;;;;;;;6.50;3.50;;;;;;;;;;107557;282;39991;-43
2023/05/27 15:03:15;;;;;;;6.60;3.90;;;;;;;;;;107516;283;40372;-40
2023/05/27 15:05:49;;;;;;;7.80;3.80;;;;;;;;;;107479;286;48559;-40
2023/05/27 15:08:23;;;;;;;7.20;4.20;;;;;;;;;;107578;285;43251;-40
2023/05/27 15:10:57;;;;;;;7.20;4.20;;;;;;;;;;107437;284;38832;-40
2023/05/27 15:13:31;;;;;;;6.10;3.70;;;;;;;;;;107423;286;175179;-41
2023/05/27 15:16:04;;;;;;;6.10;3.50;;;;;;;;;;107549;282;49850;-40
2023/05/27 15:18:39;;;;;;;6.70;3.60;;;;;;;;;;107464;282;42106;-40
2023/05/27 15:21:15;;;;;;;6.00;3.40;;;;;;;;;;107592;283;38608;-40
2023/05/27 15:23:49;;;;;;;7.20;3.90;;;;;;;;;;107563;283;40916;-40
2023/05/27 15:26:24;;;;;;;6.00;3.40;;;;;;;;;;107466;286;48566;-40
2023/05/27 15:29:00;;;;;;;6.30;3.70;;;;;;;;;;107496;283;42280;-40